VIV236 MMUN-MROC
Flight info
| Callsign | VIV236 |
|---|---|
| Flight time | 1h 50m |
| Altitude | 37000 |
| Route | ALSUP1C ALSUP UB881 BTO/N0446F390 UZ498 MGA UZ512 LIB BARRA3L |
| Aircraft | A320/M-SDE3FGHIRWY/LB1 |
Departure
| Time | 2026-05-06 21:38 |
|---|---|
| Airport | Cancún International Airport (MMUN) |
Arrival
| Time | 2026-05-06 23:28 |
|---|---|
| Airport | Juan Santamaría International Airport (MROC) |
| Time | Latitude | Longitude | Altitude | Speed | Heading |
|---|---|---|---|---|---|
| 2026-05-06 21:20 | 21.03928 | -86.87680 | 30 ft | 0 kts | 34° |
| 2026-05-06 21:31 | 21.03911 | -86.87692 | 30 ft | 4 kts | 30° |
| 2026-05-06 21:31 | 21.03887 | -86.87705 | 30 ft | 4 kts | 15° |
| 2026-05-06 21:32 | 21.03862 | -86.87707 | 31 ft | 4 kts | 333° |
| 2026-05-06 21:32 | 21.03853 | -86.87700 | 31 ft | 0 kts | 304° |
| 2026-05-06 21:34 | 21.03855 | -86.87703 | 31 ft | 2 kts | 304° |
| 2026-05-06 21:34 | 21.03877 | -86.87738 | 31 ft | 9 kts | 304° |
| 2026-05-06 21:34 | 21.03924 | -86.87813 | 30 ft | 16 kts | 303° |
| 2026-05-06 21:34 | 21.03993 | -86.87924 | 30 ft | 20 kts | 304° |
| 2026-05-06 21:35 | 21.04081 | -86.88063 | 30 ft | 25 kts | 304° |
| 2026-05-06 21:35 | 21.04180 | -86.88221 | 30 ft | 26 kts | 304° |
| 2026-05-06 21:35 | 21.04283 | -86.88385 | 31 ft | 25 kts | 304° |
| 2026-05-06 21:35 | 21.04380 | -86.88541 | 31 ft | 25 kts | 304° |
| 2026-05-06 21:36 | 21.04478 | -86.88696 | 31 ft | 22 kts | 304° |
| 2026-05-06 21:36 | 21.04568 | -86.88840 | 30 ft | 25 kts | 302° |
| 2026-05-06 21:36 | 21.04639 | -86.88994 | 30 ft | 18 kts | 255° |
| 2026-05-06 21:36 | 21.04575 | -86.89048 | 31 ft | 11 kts | 217° |
| 2026-05-06 21:37 | 21.04503 | -86.89062 | 31 ft | 12 kts | 147° |
| 2026-05-06 21:37 | 21.04437 | -86.88958 | 32 ft | 38 kts | 123° |
| 2026-05-06 21:37 | 21.04148 | -86.88504 | 34 ft | 106 kts | 123° |
| 2026-05-06 21:37 | 21.03641 | -86.87682 | 36 ft | 156 kts | 124° |
| 2026-05-06 21:38 | 21.02998 | -86.86650 | 368 ft | 173 kts | 125° |
| 2026-05-06 21:38 | 21.02351 | -86.85547 | 1144 ft | 172 kts | 124° |
| 2026-05-06 21:38 | 21.01682 | -86.84465 | 1644 ft | 181 kts | 134° |
| 2026-05-06 21:38 | 21.00593 | -86.83706 | 1880 ft | 204 kts | 163° |
| 2026-05-06 21:39 | 20.99128 | -86.83330 | 2226 ft | 228 kts | 166° |
| 2026-05-06 21:39 | 20.97501 | -86.82932 | 2728 ft | 249 kts | 165° |
| 2026-05-06 21:39 | 20.95794 | -86.82516 | 3600 ft | 254 kts | 164° |
| 2026-05-06 21:39 | 20.94062 | -86.82095 | 4495 ft | 258 kts | 165° |
| 2026-05-06 21:40 | 20.92289 | -86.81667 | 4878 ft | 263 kts | 165° |
| 2026-05-06 21:40 | 20.90475 | -86.81415 | 4991 ft | 266 kts | 181° |
| 2026-05-06 21:40 | 20.88643 | -86.81786 | 5017 ft | 269 kts | 190° |
| 2026-05-06 21:40 | 20.86823 | -86.82240 | 5013 ft | 269 kts | 190° |
| 2026-05-06 21:41 | 20.85006 | -86.82697 | 5009 ft | 268 kts | 190° |
| 2026-05-06 21:41 | 20.83191 | -86.83152 | 5010 ft | 267 kts | 190° |
| 2026-05-06 21:41 | 20.81372 | -86.83605 | 5158 ft | 272 kts | 190° |
| 2026-05-06 21:41 | 20.79528 | -86.84066 | 6087 ft | 272 kts | 190° |
| 2026-05-06 21:42 | 20.77675 | -86.84526 | 6965 ft | 275 kts | 190° |
| 2026-05-06 21:42 | 20.75792 | -86.84991 | 7763 ft | 280 kts | 190° |
| 2026-05-06 21:42 | 20.73882 | -86.85464 | 8531 ft | 284 kts | 191° |
| 2026-05-06 21:42 | 20.71940 | -86.85947 | 9270 ft | 289 kts | 191° |
| 2026-05-06 21:43 | 20.69963 | -86.86437 | 9973 ft | 294 kts | 191° |
| 2026-05-06 21:43 | 20.67914 | -86.86944 | 10337 ft | 313 kts | 191° |
| 2026-05-06 21:43 | 20.65748 | -86.87478 | 10530 ft | 333 kts | 191° |
| 2026-05-06 21:43 | 20.63455 | -86.88046 | 10916 ft | 343 kts | 191° |
| 2026-05-06 21:44 | 20.61122 | -86.88623 | 11000 ft | 345 kts | 191° |
| 2026-05-06 21:44 | 20.58778 | -86.89201 | 11006 ft | 346 kts | 191° |
| 2026-05-06 21:44 | 20.56436 | -86.89780 | 11008 ft | 346 kts | 191° |
| 2026-05-06 21:44 | 20.54088 | -86.90364 | 11005 ft | 346 kts | 191° |
| 2026-05-06 21:45 | 20.51743 | -86.90942 | 11005 ft | 345 kts | 189° |
| 2026-05-06 21:45 | 20.49361 | -86.91185 | 11102 ft | 345 kts | 176° |
| 2026-05-06 21:45 | 20.46951 | -86.91136 | 11790 ft | 347 kts | 177° |
| 2026-05-06 21:45 | 20.44517 | -86.91109 | 12389 ft | 352 kts | 177° |
| 2026-05-06 21:46 | 20.42051 | -86.91095 | 12979 ft | 357 kts | 177° |
| 2026-05-06 21:46 | 20.39554 | -86.91083 | 13583 ft | 360 kts | 177° |
| 2026-05-06 21:46 | 20.37036 | -86.91069 | 14150 ft | 364 kts | 177° |
| 2026-05-06 21:46 | 20.34493 | -86.91050 | 14716 ft | 367 kts | 177° |
| 2026-05-06 21:47 | 20.31919 | -86.91027 | 15276 ft | 371 kts | 177° |
| 2026-05-06 21:47 | 20.29331 | -86.91004 | 15821 ft | 374 kts | 177° |
| 2026-05-06 21:47 | 20.26715 | -86.90981 | 16369 ft | 378 kts | 177° |
| 2026-05-06 21:47 | 20.24108 | -86.90957 | 16895 ft | 381 kts | 176° |
| 2026-05-06 21:48 | 20.21442 | -86.90931 | 17431 ft | 385 kts | 177° |
| 2026-05-06 21:48 | 20.18752 | -86.90907 | 17950 ft | 388 kts | 176° |
| 2026-05-06 21:48 | 20.16042 | -86.90882 | 18472 ft | 391 kts | 176° |
| 2026-05-06 21:48 | 20.13304 | -86.90858 | 18894 ft | 394 kts | 177° |
| 2026-05-06 21:49 | 20.10560 | -86.90836 | 18995 ft | 394 kts | 177° |
| 2026-05-06 21:49 | 20.07815 | -86.90815 | 19006 ft | 394 kts | 177° |
| 2026-05-06 21:49 | 20.05067 | -86.90792 | 19006 ft | 394 kts | 177° |
| 2026-05-06 21:49 | 20.02309 | -86.90779 | 19403 ft | 398 kts | 177° |
| 2026-05-06 21:50 | 19.99538 | -86.90781 | 19925 ft | 400 kts | 178° |
| 2026-05-06 21:50 | 19.96745 | -86.90792 | 20423 ft | 402 kts | 178° |
| 2026-05-06 21:50 | 19.93939 | -86.90807 | 20908 ft | 405 kts | 178° |
| 2026-05-06 21:50 | 19.91110 | -86.90821 | 21370 ft | 407 kts | 178° |
| 2026-05-06 21:51 | 19.88267 | -86.90832 | 21802 ft | 410 kts | 178° |
| 2026-05-06 21:51 | 19.85399 | -86.90843 | 22233 ft | 413 kts | 178° |
| 2026-05-06 21:51 | 19.82515 | -86.90854 | 22667 ft | 415 kts | 178° |
| 2026-05-06 21:51 | 19.79616 | -86.90861 | 23071 ft | 418 kts | 178° |
| 2026-05-06 21:52 | 19.76702 | -86.90864 | 23475 ft | 420 kts | 178° |
| 2026-05-06 21:52 | 19.73803 | -86.90866 | 23870 ft | 423 kts | 178° |
| 2026-05-06 21:52 | 19.70853 | -86.90869 | 24255 ft | 425 kts | 178° |
| 2026-05-06 21:52 | 19.67890 | -86.90871 | 24629 ft | 427 kts | 178° |
| 2026-05-06 21:53 | 19.64909 | -86.90872 | 25011 ft | 429 kts | 178° |
| 2026-05-06 21:53 | 19.61913 | -86.90866 | 25396 ft | 431 kts | 178° |
| 2026-05-06 21:53 | 19.58909 | -86.90857 | 25770 ft | 433 kts | 178° |
| 2026-05-06 21:53 | 19.55892 | -86.90842 | 26144 ft | 435 kts | 178° |
| 2026-05-06 21:54 | 19.52857 | -86.90823 | 26514 ft | 437 kts | 178° |
| 2026-05-06 21:54 | 19.49815 | -86.90805 | 26873 ft | 438 kts | 178° |
| 2026-05-06 21:54 | 19.46757 | -86.90790 | 27228 ft | 440 kts | 178° |
| 2026-05-06 21:54 | 19.43689 | -86.90780 | 27566 ft | 442 kts | 178° |
| 2026-05-06 21:55 | 19.40603 | -86.90771 | 27912 ft | 444 kts | 179° |
| 2026-05-06 21:55 | 19.37511 | -86.90765 | 28232 ft | 445 kts | 179° |
| 2026-05-06 21:55 | 19.34403 | -86.90759 | 28560 ft | 447 kts | 179° |
| 2026-05-06 21:55 | 19.31285 | -86.90747 | 28898 ft | 449 kts | 179° |
| 2026-05-06 21:56 | 19.28151 | -86.90731 | 29245 ft | 451 kts | 179° |
| 2026-05-06 21:56 | 19.25012 | -86.90716 | 29592 ft | 453 kts | 179° |
| 2026-05-06 21:56 | 19.21853 | -86.90701 | 29939 ft | 455 kts | 179° |
| 2026-05-06 21:56 | 19.18683 | -86.90686 | 30281 ft | 456 kts | 179° |
| 2026-05-06 21:57 | 19.15496 | -86.90673 | 30600 ft | 458 kts | 179° |
| 2026-05-06 21:57 | 19.12300 | -86.90662 | 30917 ft | 461 kts | 179° |
| 2026-05-06 21:57 | 19.09091 | -86.90654 | 31223 ft | 463 kts | 179° |
| 2026-05-06 21:57 | 19.05863 | -86.90643 | 31536 ft | 464 kts | 179° |
| 2026-05-06 21:58 | 19.02639 | -86.90625 | 31970 ft | 463 kts | 179° |
| 2026-05-06 21:58 | 18.99423 | -86.90591 | 32420 ft | 462 kts | 179° |
| 2026-05-06 21:58 | 18.96215 | -86.90545 | 32861 ft | 460 kts | 179° |
| 2026-05-06 21:58 | 18.93018 | -86.90493 | 33296 ft | 459 kts | 179° |
| 2026-05-06 21:59 | 18.89828 | -86.90444 | 33740 ft | 458 kts | 179° |
| 2026-05-06 21:59 | 18.86692 | -86.90400 | 34170 ft | 456 kts | 179° |
| 2026-05-06 21:59 | 18.83522 | -86.90359 | 34591 ft | 455 kts | 179° |
| 2026-05-06 21:59 | 18.80356 | -86.90319 | 34986 ft | 454 kts | 179° |
| 2026-05-06 22:00 | 18.77196 | -86.90279 | 35367 ft | 453 kts | 179° |
| 2026-05-06 22:00 | 18.74044 | -86.90240 | 35738 ft | 452 kts | 179° |
| 2026-05-06 22:00 | 18.70898 | -86.90202 | 36101 ft | 451 kts | 179° |
| 2026-05-06 22:00 | 18.68822 | -86.90177 | 36334 ft | 451 kts | 179° |
| 2026-05-06 22:01 | 18.65688 | -86.90139 | 36658 ft | 450 kts | 179° |
| 2026-05-06 22:01 | 18.62508 | -86.90100 | 36911 ft | 451 kts | 179° |
| 2026-05-06 22:01 | 18.56316 | -86.90021 | 36968 ft | 445 kts | 179° |
| 2026-05-06 22:02 | 18.50149 | -86.89939 | 36971 ft | 441 kts | 179° |
| 2026-05-06 22:02 | 18.44020 | -86.89855 | 36957 ft | 440 kts | 179° |
| 2026-05-06 22:03 | 18.37895 | -86.89778 | 36959 ft | 440 kts | 179° |
| 2026-05-06 22:03 | 18.31773 | -86.89694 | 36960 ft | 440 kts | 179° |
| 2026-05-06 22:04 | 18.25652 | -86.89611 | 36962 ft | 440 kts | 179° |
| 2026-05-06 22:04 | 18.19525 | -86.89529 | 36962 ft | 441 kts | 179° |
| 2026-05-06 22:05 | 18.13391 | -86.89452 | 36962 ft | 441 kts | 179° |
| 2026-05-06 22:05 | 18.07257 | -86.89366 | 36967 ft | 441 kts | 179° |
| 2026-05-06 22:06 | 18.01122 | -86.89281 | 36966 ft | 441 kts | 179° |
| 2026-05-06 22:06 | 17.95030 | -86.89204 | 36964 ft | 440 kts | 179° |
| 2026-05-06 22:07 | 17.88908 | -86.89122 | 36964 ft | 440 kts | 178° |
| 2026-05-06 22:07 | 17.82781 | -86.89023 | 36964 ft | 440 kts | 178° |
| 2026-05-06 22:08 | 17.76653 | -86.88924 | 36964 ft | 440 kts | 178° |
| 2026-05-06 22:08 | 17.70524 | -86.88826 | 36965 ft | 440 kts | 178° |
| 2026-05-06 22:09 | 17.64400 | -86.88729 | 36964 ft | 440 kts | 178° |
| 2026-05-06 22:09 | 17.58274 | -86.88639 | 36966 ft | 440 kts | 178° |
| 2026-05-06 22:10 | 17.52153 | -86.88540 | 36967 ft | 440 kts | 178° |
| 2026-05-06 22:10 | 17.46028 | -86.88434 | 36959 ft | 440 kts | 178° |
| 2026-05-06 22:11 | 17.39912 | -86.88333 | 36953 ft | 440 kts | 178° |
| 2026-05-06 22:11 | 17.33789 | -86.88242 | 36950 ft | 440 kts | 178° |
| 2026-05-06 22:12 | 17.27671 | -86.88154 | 36948 ft | 440 kts | 178° |
| 2026-05-06 22:12 | 17.21595 | -86.88059 | 36947 ft | 440 kts | 178° |
| 2026-05-06 22:13 | 17.15478 | -86.87961 | 36946 ft | 440 kts | 178° |
| 2026-05-06 22:13 | 17.09365 | -86.87871 | 36943 ft | 439 kts | 178° |
| 2026-05-06 22:14 | 17.03249 | -86.87775 | 36939 ft | 439 kts | 178° |
| 2026-05-06 22:14 | 16.97135 | -86.87676 | 36936 ft | 439 kts | 178° |
| 2026-05-06 22:15 | 16.91023 | -86.87580 | 36934 ft | 440 kts | 178° |
| 2026-05-06 22:15 | 16.84903 | -86.87479 | 36936 ft | 440 kts | 178° |
| 2026-05-06 22:16 | 16.78780 | -86.87387 | 36935 ft | 440 kts | 178° |
| 2026-05-06 22:16 | 16.72656 | -86.87296 | 36939 ft | 440 kts | 178° |
| 2026-05-06 22:17 | 16.66536 | -86.87195 | 36937 ft | 440 kts | 178° |
| 2026-05-06 22:17 | 16.60409 | -86.87095 | 36937 ft | 440 kts | 178° |
| 2026-05-06 22:18 | 16.54279 | -86.87003 | 36937 ft | 441 kts | 178° |
| 2026-05-06 22:18 | 16.48188 | -86.86910 | 36939 ft | 441 kts | 178° |
| 2026-05-06 22:19 | 16.42056 | -86.86817 | 36938 ft | 440 kts | 178° |
| 2026-05-06 22:19 | 16.35926 | -86.86722 | 36938 ft | 440 kts | 178° |
| 2026-05-06 22:20 | 16.29800 | -86.86627 | 36939 ft | 441 kts | 178° |
| 2026-05-06 22:20 | 16.23667 | -86.86530 | 36938 ft | 440 kts | 178° |
| 2026-05-06 22:21 | 16.17548 | -86.86436 | 36933 ft | 441 kts | 178° |
| 2026-05-06 22:21 | 16.11413 | -86.86341 | 36933 ft | 441 kts | 178° |
| 2026-05-06 22:22 | 16.05280 | -86.86301 | 36931 ft | 441 kts | 179° |
| 2026-05-06 22:22 | 15.99148 | -86.86345 | 36914 ft | 441 kts | 179° |
| 2026-05-06 22:23 | 15.93023 | -86.86381 | 36909 ft | 440 kts | 179° |
| 2026-05-06 22:23 | 15.86896 | -86.86391 | 36911 ft | 440 kts | 179° |
| 2026-05-06 22:24 | 15.80761 | -86.86396 | 36908 ft | 441 kts | 179° |
| 2026-05-06 22:24 | 15.74622 | -86.86388 | 36910 ft | 441 kts | 175° |
| 2026-05-06 22:25 | 15.68581 | -86.85440 | 36920 ft | 439 kts | 168° |
| 2026-05-06 22:25 | 15.62565 | -86.84261 | 36922 ft | 440 kts | 168° |
| 2026-05-06 22:26 | 15.56547 | -86.83084 | 36923 ft | 440 kts | 168° |
| 2026-05-06 22:26 | 15.50532 | -86.81909 | 36921 ft | 440 kts | 168° |
| 2026-05-06 22:27 | 15.44511 | -86.80740 | 36920 ft | 440 kts | 168° |
| 2026-05-06 22:27 | 15.38530 | -86.79586 | 36924 ft | 440 kts | 168° |
| 2026-05-06 22:28 | 15.32514 | -86.78417 | 36928 ft | 440 kts | 168° |
| 2026-05-06 22:28 | 15.26497 | -86.77242 | 36930 ft | 440 kts | 168° |
| 2026-05-06 22:29 | 15.20483 | -86.76070 | 36932 ft | 440 kts | 168° |
| 2026-05-06 22:29 | 15.14460 | -86.74900 | 36936 ft | 440 kts | 168° |
| 2026-05-06 22:30 | 15.08439 | -86.73737 | 36941 ft | 440 kts | 168° |
| 2026-05-06 22:30 | 15.02410 | -86.72570 | 36948 ft | 441 kts | 168° |
| 2026-05-06 22:31 | 14.96382 | -86.71398 | 36956 ft | 441 kts | 168° |
| 2026-05-06 22:31 | 14.90347 | -86.70227 | 36965 ft | 441 kts | 168° |
| 2026-05-06 22:32 | 14.84308 | -86.69060 | 36977 ft | 442 kts | 168° |
| 2026-05-06 22:32 | 14.78301 | -86.67903 | 36982 ft | 442 kts | 168° |
| 2026-05-06 22:33 | 14.72252 | -86.66737 | 36987 ft | 442 kts | 168° |
| 2026-05-06 22:33 | 14.66205 | -86.65576 | 36993 ft | 442 kts | 169° |
| 2026-05-06 22:34 | 14.60151 | -86.64409 | 36999 ft | 442 kts | 168° |
| 2026-05-06 22:34 | 14.54104 | -86.63238 | 37002 ft | 442 kts | 168° |
| 2026-05-06 22:35 | 14.48049 | -86.62071 | 37004 ft | 442 kts | 169° |
| 2026-05-06 22:35 | 14.41997 | -86.60905 | 37003 ft | 442 kts | 168° |
| 2026-05-06 22:36 | 14.35936 | -86.59736 | 37011 ft | 443 kts | 169° |
| 2026-05-06 22:36 | 14.29879 | -86.58572 | 37016 ft | 443 kts | 169° |
| 2026-05-06 22:37 | 14.23858 | -86.57416 | 37022 ft | 443 kts | 169° |
| 2026-05-06 22:37 | 14.17788 | -86.56246 | 37031 ft | 444 kts | 169° |
| 2026-05-06 22:38 | 14.11711 | -86.55079 | 37028 ft | 444 kts | 169° |
| 2026-05-06 22:38 | 14.05638 | -86.53919 | 37028 ft | 444 kts | 169° |
| 2026-05-06 22:39 | 13.99557 | -86.52753 | 37021 ft | 445 kts | 169° |
| 2026-05-06 22:39 | 13.93474 | -86.51585 | 37015 ft | 445 kts | 169° |
| 2026-05-06 22:40 | 13.87385 | -86.50413 | 37010 ft | 445 kts | 169° |
| 2026-05-06 22:40 | 13.81300 | -86.49243 | 37004 ft | 445 kts | 169° |
| 2026-05-06 22:41 | 13.72209 | -86.47510 | 36997 ft | 445 kts | 169° |
| 2026-05-06 22:42 | 13.66123 | -86.46346 | 36989 ft | 445 kts | 169° |
| 2026-05-06 22:42 | 13.60035 | -86.45180 | 36982 ft | 445 kts | 169° |
| 2026-05-06 22:43 | 13.53943 | -86.44013 | 36975 ft | 445 kts | 169° |
| 2026-05-06 22:43 | 13.47856 | -86.42848 | 36970 ft | 445 kts | 169° |
| 2026-05-06 22:44 | 13.41765 | -86.41694 | 36965 ft | 445 kts | 169° |
| 2026-05-06 22:44 | 13.35665 | -86.40534 | 36961 ft | 445 kts | 169° |
| 2026-05-06 22:45 | 13.29571 | -86.39373 | 36956 ft | 445 kts | 169° |
| 2026-05-06 22:45 | 13.23487 | -86.38206 | 36916 ft | 444 kts | 169° |
| 2026-05-06 22:46 | 13.17412 | -86.37041 | 36909 ft | 444 kts | 169° |
| 2026-05-06 22:46 | 13.11340 | -86.35889 | 36902 ft | 444 kts | 169° |
| 2026-05-06 22:47 | 13.05265 | -86.34738 | 36897 ft | 444 kts | 169° |
| 2026-05-06 22:47 | 12.99182 | -86.33575 | 36891 ft | 445 kts | 169° |
| 2026-05-06 22:48 | 12.93093 | -86.32421 | 36892 ft | 445 kts | 169° |
| 2026-05-06 22:48 | 12.87000 | -86.31263 | 36891 ft | 445 kts | 169° |
| 2026-05-06 22:49 | 12.80908 | -86.30107 | 36890 ft | 445 kts | 169° |
| 2026-05-06 22:49 | 12.74819 | -86.28949 | 36887 ft | 445 kts | 169° |
| 2026-05-06 22:50 | 12.69751 | -86.27981 | 36883 ft | 446 kts | 169° |
| 2026-05-06 22:50 | 12.62624 | -86.26635 | 36880 ft | 446 kts | 169° |
| 2026-05-06 22:51 | 12.57550 | -86.25676 | 36874 ft | 446 kts | 169° |
| 2026-05-06 22:51 | 12.51447 | -86.24513 | 36872 ft | 446 kts | 169° |
| 2026-05-06 22:52 | 12.45346 | -86.23355 | 36867 ft | 446 kts | 169° |
| 2026-05-06 22:52 | 12.39240 | -86.22199 | 36863 ft | 446 kts | 169° |
| 2026-05-06 22:53 | 12.33130 | -86.21047 | 36861 ft | 446 kts | 169° |
| 2026-05-06 22:53 | 12.27017 | -86.19899 | 36857 ft | 447 kts | 169° |
| 2026-05-06 22:54 | 12.20906 | -86.18743 | 36857 ft | 447 kts | 169° |
| 2026-05-06 22:54 | 12.14797 | -86.17559 | 36856 ft | 447 kts | 165° |
| 2026-05-06 22:55 | 12.08979 | -86.15388 | 36856 ft | 446 kts | 157° |
| 2026-05-06 22:55 | 12.03224 | -86.13034 | 36854 ft | 445 kts | 158° |
| 2026-05-06 22:56 | 11.97507 | -86.10712 | 36852 ft | 445 kts | 158° |
| 2026-05-06 22:56 | 11.91706 | -86.08364 | 36852 ft | 446 kts | 157° |
| 2026-05-06 22:57 | 11.85987 | -86.06035 | 36855 ft | 446 kts | 158° |
| 2026-05-06 22:57 | 11.80225 | -86.03692 | 36859 ft | 446 kts | 158° |
| 2026-05-06 22:58 | 11.74467 | -86.01351 | 36863 ft | 446 kts | 158° |
| 2026-05-06 22:58 | 11.68698 | -85.99012 | 36870 ft | 446 kts | 158° |
| 2026-05-06 22:59 | 11.62935 | -85.96669 | 36871 ft | 446 kts | 158° |
| 2026-05-06 22:59 | 11.57171 | -85.94323 | 36874 ft | 445 kts | 158° |
| 2026-05-06 23:00 | 11.51416 | -85.91984 | 36880 ft | 445 kts | 158° |
| 2026-05-06 23:00 | 11.45658 | -85.89651 | 36879 ft | 445 kts | 158° |
| 2026-05-06 23:01 | 11.39904 | -85.87321 | 36879 ft | 445 kts | 158° |
| 2026-05-06 23:01 | 11.34153 | -85.84992 | 36875 ft | 444 kts | 158° |
| 2026-05-06 23:02 | 11.28400 | -85.82663 | 36874 ft | 445 kts | 158° |
| 2026-05-06 23:02 | 11.22690 | -85.80350 | 36873 ft | 445 kts | 158° |
| 2026-05-06 23:03 | 11.16936 | -85.78034 | 36874 ft | 445 kts | 158° |
| 2026-05-06 23:03 | 11.11166 | -85.75746 | 36874 ft | 445 kts | 158° |
| 2026-05-06 23:04 | 11.05406 | -85.73457 | 36875 ft | 444 kts | 158° |
| 2026-05-06 23:04 | 11.02523 | -85.72299 | 36425 ft | 446 kts | 158° |
| 2026-05-06 23:04 | 10.99644 | -85.71127 | 36018 ft | 444 kts | 157° |
| 2026-05-06 23:04 | 10.96777 | -85.69949 | 35768 ft | 446 kts | 157° |
| 2026-05-06 23:05 | 10.93890 | -85.68757 | 35519 ft | 448 kts | 157° |
| 2026-05-06 23:05 | 10.90995 | -85.67563 | 35273 ft | 449 kts | 157° |
| 2026-05-06 23:05 | 10.88097 | -85.66368 | 35021 ft | 449 kts | 157° |
| 2026-05-06 23:05 | 10.85203 | -85.65180 | 34764 ft | 448 kts | 157° |
| 2026-05-06 23:06 | 10.82319 | -85.64001 | 34521 ft | 446 kts | 158° |
| 2026-05-06 23:06 | 10.79456 | -85.62834 | 34089 ft | 442 kts | 158° |
| 2026-05-06 23:06 | 10.76607 | -85.61671 | 33584 ft | 440 kts | 157° |
| 2026-05-06 23:06 | 10.73782 | -85.60515 | 33087 ft | 437 kts | 157° |
| 2026-05-06 23:07 | 10.70969 | -85.59362 | 32585 ft | 434 kts | 157° |
| 2026-05-06 23:07 | 10.68173 | -85.58219 | 32089 ft | 432 kts | 157° |
| 2026-05-06 23:07 | 10.65393 | -85.57082 | 31595 ft | 429 kts | 156° |
| 2026-05-06 23:07 | 10.62723 | -85.55782 | 31110 ft | 424 kts | 147° |
| 2026-05-06 23:08 | 10.60365 | -85.54020 | 30647 ft | 418 kts | 136° |
| 2026-05-06 23:08 | 10.58429 | -85.51899 | 30197 ft | 413 kts | 126° |
| 2026-05-06 23:08 | 10.56888 | -85.49424 | 29757 ft | 407 kts | 115° |
| 2026-05-06 23:08 | 10.55658 | -85.46891 | 29335 ft | 403 kts | 115° |
| 2026-05-06 23:09 | 10.54426 | -85.44342 | 28909 ft | 400 kts | 115° |
| 2026-05-06 23:09 | 10.53207 | -85.41816 | 28490 ft | 396 kts | 115° |
| 2026-05-06 23:09 | 10.51998 | -85.39314 | 28086 ft | 393 kts | 115° |
| 2026-05-06 23:09 | 10.50795 | -85.36834 | 27688 ft | 390 kts | 115° |
| 2026-05-06 23:10 | 10.49604 | -85.34377 | 27299 ft | 386 kts | 115° |
| 2026-05-06 23:10 | 10.48417 | -85.31931 | 26898 ft | 383 kts | 114° |
| 2026-05-06 23:10 | 10.47247 | -85.29514 | 26505 ft | 380 kts | 114° |
| 2026-05-06 23:10 | 10.46087 | -85.27117 | 26108 ft | 377 kts | 114° |
| 2026-05-06 23:11 | 10.44935 | -85.24741 | 25705 ft | 373 kts | 114° |
| 2026-05-06 23:11 | 10.43788 | -85.22383 | 25313 ft | 370 kts | 114° |
| 2026-05-06 23:11 | 10.42656 | -85.20051 | 24908 ft | 367 kts | 114° |
| 2026-05-06 23:11 | 10.41538 | -85.17739 | 24510 ft | 363 kts | 114° |
| 2026-05-06 23:12 | 10.40431 | -85.15449 | 24088 ft | 360 kts | 114° |
| 2026-05-06 23:12 | 10.39331 | -85.13174 | 23660 ft | 357 kts | 114° |
| 2026-05-06 23:12 | 10.38238 | -85.10920 | 23240 ft | 354 kts | 114° |
| 2026-05-06 23:12 | 10.37151 | -85.08686 | 22811 ft | 351 kts | 114° |
| 2026-05-06 23:13 | 10.36072 | -85.06472 | 22399 ft | 349 kts | 114° |
| 2026-05-06 23:13 | 10.35002 | -85.04272 | 21963 ft | 346 kts | 114° |
| 2026-05-06 23:13 | 10.33940 | -85.02086 | 21548 ft | 344 kts | 114° |
| 2026-05-06 23:13 | 10.32888 | -84.99912 | 21116 ft | 342 kts | 114° |
| 2026-05-06 23:14 | 10.31841 | -84.97750 | 20688 ft | 340 kts | 114° |
| 2026-05-06 23:14 | 10.30802 | -84.95606 | 20270 ft | 337 kts | 114° |
| 2026-05-06 23:14 | 10.29767 | -84.93475 | 19845 ft | 335 kts | 114° |
| 2026-05-06 23:14 | 10.28735 | -84.91359 | 19421 ft | 334 kts | 114° |
| 2026-05-06 23:15 | 10.27709 | -84.89254 | 19001 ft | 331 kts | 114° |
| 2026-05-06 23:15 | 10.26691 | -84.87161 | 18550 ft | 331 kts | 114° |
| 2026-05-06 23:15 | 10.25676 | -84.85074 | 18101 ft | 329 kts | 114° |
| 2026-05-06 23:15 | 10.24661 | -84.82995 | 17676 ft | 328 kts | 114° |
| 2026-05-06 23:16 | 10.23649 | -84.80923 | 17253 ft | 327 kts | 114° |
| 2026-05-06 23:16 | 10.22645 | -84.78853 | 16829 ft | 326 kts | 114° |
| 2026-05-06 23:16 | 10.21646 | -84.76801 | 16411 ft | 324 kts | 114° |
| 2026-05-06 23:16 | 10.20651 | -84.74761 | 15996 ft | 322 kts | 114° |
| 2026-05-06 23:17 | 10.19659 | -84.72727 | 15584 ft | 321 kts | 114° |
| 2026-05-06 23:17 | 10.18673 | -84.70701 | 15170 ft | 320 kts | 114° |
| 2026-05-06 23:17 | 10.17691 | -84.68683 | 14755 ft | 319 kts | 115° |
| 2026-05-06 23:17 | 10.16710 | -84.66667 | 14346 ft | 317 kts | 115° |
| 2026-05-06 23:18 | 10.15730 | -84.64664 | 13944 ft | 316 kts | 116° |
| 2026-05-06 23:18 | 10.14495 | -84.62857 | 13545 ft | 318 kts | 131° |
| 2026-05-06 23:18 | 10.12803 | -84.61435 | 13334 ft | 314 kts | 146° |
| 2026-05-06 23:18 | 10.10952 | -84.60315 | 13025 ft | 310 kts | 147° |
| 2026-05-06 23:19 | 10.09113 | -84.59204 | 12475 ft | 305 kts | 147° |
| 2026-05-06 23:19 | 10.07300 | -84.58107 | 11948 ft | 301 kts | 147° |
| 2026-05-06 23:19 | 10.05506 | -84.57018 | 11558 ft | 301 kts | 147° |
| 2026-05-06 23:19 | 10.03728 | -84.55936 | 11374 ft | 293 kts | 147° |
| 2026-05-06 23:20 | 10.02010 | -84.54894 | 11271 ft | 283 kts | 147° |
| 2026-05-06 23:20 | 10.00342 | -84.53888 | 11150 ft | 275 kts | 148° |
| 2026-05-06 23:20 | 9.98617 | -84.53125 | 11037 ft | 268 kts | 162° |
| 2026-05-06 23:20 | 9.96780 | -84.52803 | 10666 ft | 271 kts | 175° |
| 2026-05-06 23:21 | 9.94882 | -84.52643 | 10244 ft | 276 kts | 171° |
| 2026-05-06 23:21 | 9.92977 | -84.52351 | 9821 ft | 279 kts | 167° |
| 2026-05-06 23:21 | 9.91114 | -84.51814 | 9430 ft | 278 kts | 150° |
| 2026-05-06 23:21 | 9.89727 | -84.50493 | 8982 ft | 278 kts | 118° |
| 2026-05-06 23:22 | 9.89226 | -84.48642 | 8462 ft | 281 kts | 88° |
| 2026-05-06 23:22 | 9.89641 | -84.46680 | 7961 ft | 285 kts | 69° |
| 2026-05-06 23:22 | 9.90383 | -84.44842 | 7571 ft | 283 kts | 67° |
| 2026-05-06 23:22 | 9.91081 | -84.43083 | 7197 ft | 255 kts | 68° |
| 2026-05-06 23:23 | 9.91684 | -84.41476 | 6885 ft | 233 kts | 69° |
| 2026-05-06 23:23 | 9.92232 | -84.40004 | 6589 ft | 215 kts | 69° |
| 2026-05-06 23:23 | 9.92739 | -84.38649 | 6330 ft | 197 kts | 69° |
| 2026-05-06 23:23 | 9.93198 | -84.37421 | 6102 ft | 173 kts | 68° |
| 2026-05-06 23:24 | 9.93600 | -84.36351 | 5853 ft | 153 kts | 69° |
| 2026-05-06 23:24 | 9.93971 | -84.35361 | 5654 ft | 147 kts | 68° |
| 2026-05-06 23:24 | 9.94329 | -84.34405 | 5463 ft | 147 kts | 69° |
| 2026-05-06 23:24 | 9.94690 | -84.33443 | 5267 ft | 146 kts | 69° |
| 2026-05-06 23:25 | 9.95050 | -84.32483 | 5077 ft | 146 kts | 68° |
| 2026-05-06 23:25 | 9.95410 | -84.31521 | 4882 ft | 145 kts | 68° |
| 2026-05-06 23:25 | 9.95767 | -84.30567 | 4687 ft | 144 kts | 68° |
| 2026-05-06 23:25 | 9.96125 | -84.29610 | 4499 ft | 145 kts | 68° |
| 2026-05-06 23:26 | 9.96484 | -84.28653 | 4309 ft | 145 kts | 68° |
| 2026-05-06 23:26 | 9.96842 | -84.27696 | 4113 ft | 145 kts | 68° |
| 2026-05-06 23:26 | 9.97199 | -84.26743 | 3921 ft | 144 kts | 68° |
| 2026-05-06 23:26 | 9.97554 | -84.25794 | 3730 ft | 144 kts | 68° |
| 2026-05-06 23:27 | 9.97909 | -84.24845 | 3539 ft | 144 kts | 68° |
| 2026-05-06 23:27 | 9.98264 | -84.23897 | 3353 ft | 143 kts | 68° |
| 2026-05-06 23:27 | 9.98618 | -84.22954 | 3161 ft | 143 kts | 68° |
| 2026-05-06 23:27 | 9.98966 | -84.22016 | 3040 ft | 143 kts | 69° |
| 2026-05-06 23:28 | 9.99312 | -84.21103 | 3010 ft | 132 kts | 69° |
| 2026-05-06 23:28 | 9.99530 | -84.20518 | 3036 ft | 39 kts | 70° |
| 2026-05-06 23:28 | 9.99605 | -84.20435 | 3036 ft | 5 kts | 357° |
| 2026-05-06 23:28 | 9.99644 | -84.20434 | 3036 ft | 9 kts | 5° |
| 2026-05-06 23:29 | 9.99692 | -84.20445 | 3034 ft | 6 kts | 341° |
| 2026-05-06 23:29 | 9.99701 | -84.20448 | 3034 ft | 2 kts | 341° |
| 2026-05-06 23:29 | 9.99711 | -84.20452 | 3037 ft | 0 kts | 339° |